sensor_id;sensor_type;location;lat;lon;timestamp;pressure;altitude;pressure_sealevel;temperature;humidity
60715;BME280;46564;53.096;8.246;2023-02-13T00:02:52;103671.38;;;6.01;nan
60715;BME280;46564;53.096;8.246;2023-02-13T00:07:53;103676.31;;;5.98;nan
60715;BME280;46564;53.096;8.246;2023-02-13T00:12:55;103667.44;;;5.96;nan
60715;BME280;46564;53.096;8.246;2023-02-13T00:17:57;103673.19;;;5.92;nan
60715;BME280;46564;53.096;8.246;2023-02-13T00:22:59;103666.69;;;5.87;nan
60715;BME280;46564;53.096;8.246;2023-02-13T00:28:00;103662.53;;;5.89;nan
60715;BME280;46564;53.096;8.246;2023-02-13T00:33:02;103654.97;;;5.92;nan
60715;BME280;46564;53.096;8.246;2023-02-13T00:38:03;103650.81;;;5.94;nan
60715;BME280;46564;53.096;8.246;2023-02-13T00:43:05;103647.44;;;5.95;nan
60715;BME280;46564;53.096;8.246;2023-02-13T00:48:09;103648.84;;;5.91;nan
60715;BME280;46564;53.096;8.246;2023-02-13T00:53:11;103641.47;;;5.86;nan
60715;BME280;46564;53.096;8.246;2023-02-13T00:58:13;103647.69;;;5.88;nan
60715;BME280;46564;53.096;8.246;2023-02-13T01:03:15;103649.16;;;5.84;nan
60715;BME280;46564;53.096;8.246;2023-02-13T01:08:19;103653.44;;;5.83;nan
60715;BME280;46564;53.096;8.246;2023-02-13T01:13:21;103662.03;;;5.82;nan
60715;BME280;46564;53.096;8.246;2023-02-13T01:18:23;103658.25;;;5.79;nan
60715;BME280;46564;53.096;8.246;2023-02-13T01:23:28;103642.53;;;5.77;nan
60715;BME280;46564;53.096;8.246;2023-02-13T01:28:30;103647.19;;;5.81;nan
60715;BME280;46564;53.096;8.246;2023-02-13T01:33:32;103647.19;;;5.81;nan
60715;BME280;46564;53.096;8.246;2023-02-13T01:38:34;103641.75;;;5.78;nan
60715;BME280;46564;53.096;8.246;2023-02-13T01:44:02;103638.34;;;5.79;nan
60715;BME280;46564;53.096;8.246;2023-02-13T01:49:13;103631.34;;;5.78;nan
60715;BME280;46564;53.096;8.246;2023-02-13T01:54:28;103626.28;;;5.80;nan
60715;BME280;46564;53.096;8.246;2023-02-13T01:59:52;103615.75;;;5.78;nan
60715;BME280;46564;53.096;8.246;2023-02-13T02:04:55;103610.53;;;5.78;nan
60715;BME280;46564;53.096;8.246;2023-02-13T02:10:02;103617.53;;;5.79;nan
60715;BME280;46564;53.096;8.246;2023-02-13T02:15:06;103621.47;;;5.74;nan
60715;BME280;46564;53.096;8.246;2023-02-13T02:20:27;103612.09;;;5.76;nan
60715;BME280;46564;53.096;8.246;2023-02-13T02:58:24;103581.44;;;5.72;nan
60715;BME280;46564;53.096;8.246;2023-02-13T03:03:48;103586.41;;;5.69;nan
60715;BME280;46564;53.096;8.246;2023-02-13T03:09:11;103577.53;;;5.67;nan
60715;BME280;46564;53.096;8.246;2023-02-13T03:14:33;103584.44;;;5.66;nan
60715;BME280;46564;53.096;8.246;2023-02-13T03:25:21;103579.00;;;5.63;nan
60715;BME280;46564;53.096;8.246;2023-02-13T03:35:50;103572.75;;;5.61;nan
60715;BME280;46564;53.096;8.246;2023-02-13T03:41:19;103582.00;;;5.58;nan
60715;BME280;46564;53.096;8.246;2023-02-13T03:46:25;103581.22;;;5.59;nan
60715;BME280;46564;53.096;8.246;2023-02-13T03:51:32;103575.22;;;5.60;nan
60715;BME280;46564;53.096;8.246;2023-02-13T03:56:38;103572.38;;;5.57;nan
60715;BME280;46564;53.096;8.246;2023-02-13T04:02:11;103572.38;;;5.57;nan
60715;BME280;46564;53.096;8.246;2023-02-13T04:07:15;103572.38;;;5.57;nan
60715;BME280;46564;53.096;8.246;2023-02-13T04:18:14;103586.28;;;5.57;nan
60715;BME280;46564;53.096;8.246;2023-02-13T04:23:17;103591.75;;;5.60;nan
60715;BME280;46564;53.096;8.246;2023-02-13T04:28:19;103592.53;;;5.59;nan
60715;BME280;46564;53.096;8.246;2023-02-13T04:33:21;103597.84;;;5.61;nan
60715;BME280;46564;53.096;8.246;2023-02-13T04:38:22;103590.94;;;5.61;nan
60715;BME280;46564;53.096;8.246;2023-02-13T04:43:24;103585.75;;;5.61;nan
60715;BME280;46564;53.096;8.246;2023-02-13T04:48:26;103580.16;;;5.57;nan
60715;BME280;46564;53.096;8.246;2023-02-13T04:53:27;103587.31;;;5.59;nan
60715;BME280;46564;53.096;8.246;2023-02-13T04:58:29;103579.66;;;5.61;nan
60715;BME280;46564;53.096;8.246;2023-02-13T05:03:31;103581.75;;;5.55;nan
60715;BME280;46564;53.096;8.246;2023-02-13T05:08:33;103579.41;;;5.58;nan
60715;BME280;46564;53.096;8.246;2023-02-13T05:13:34;103585.25;;;5.55;nan
60715;BME280;46564;53.096;8.246;2023-02-13T05:18:36;103587.97;;;5.57;nan
60715;BME280;46564;53.096;8.246;2023-02-13T05:23:38;103592.41;;;5.58;nan
60715;BME280;46564;53.096;8.246;2023-02-13T05:28:39;103590.56;;;5.57;nan
60715;BME280;46564;53.096;8.246;2023-02-13T05:33:59;103591.38;;;5.56;nan
60715;BME280;46564;53.096;8.246;2023-02-13T05:39:01;103596.31;;;5.53;nan
60715;BME280;46564;53.096;8.246;2023-02-13T05:44:03;103594.63;;;5.53;nan
60715;BME280;46564;53.096;8.246;2023-02-13T05:49:06;103594.50;;;5.52;nan
60715;BME280;46564;53.096;8.246;2023-02-13T05:54:08;103597.09;;;5.52;nan
60715;BME280;46564;53.096;8.246;2023-02-13T05:59:09;103597.84;;;5.51;nan
60715;BME280;46564;53.096;8.246;2023-02-13T06:04:11;103597.22;;;5.53;nan
60715;BME280;46564;53.096;8.246;2023-02-13T06:09:13;103594.50;;;5.52;nan
60715;BME280;46564;53.096;8.246;2023-02-13T06:14:14;103613.19;;;5.47;nan
60715;BME280;46564;53.096;8.246;2023-02-13T06:19:16;103605.53;;;5.49;nan
60715;BME280;46564;53.096;8.246;2023-02-13T06:24:18;103616.84;;;5.49;nan
60715;BME280;46564;53.096;8.246;2023-02-13T06:29:19;103628.03;;;5.48;nan
60715;BME280;46564;53.096;8.246;2023-02-13T06:34:21;103625.44;;;5.48;nan
60715;BME280;46564;53.096;8.246;2023-02-13T06:39:23;103635.06;;;5.49;nan
60715;BME280;46564;53.096;8.246;2023-02-13T06:44:24;103631.53;;;5.49;nan
60715;BME280;46564;53.096;8.246;2023-02-13T06:49:26;103635.06;;;5.49;nan
60715;BME280;46564;53.096;8.246;2023-02-13T06:54:27;103644.66;;;5.51;nan
60715;BME280;46564;53.096;8.246;2023-02-13T06:59:46;103641.78;;;5.47;nan
60715;BME280;46564;53.096;8.246;2023-02-13T07:04:48;103648.19;;;5.51;nan
60715;BME280;46564;53.096;8.246;2023-02-13T07:09:50;103642.28;;;5.54;nan
60715;BME280;46564;53.096;8.246;2023-02-13T07:14:52;103641.91;;;5.49;nan
60715;BME280;46564;53.096;8.246;2023-02-13T07:19:54;103644.78;;;5.52;nan
60715;BME280;46564;53.096;8.246;2023-02-13T07:24:55;103642.84;;;5.49;nan
60715;BME280;46564;53.096;8.246;2023-02-13T07:29:59;103643.63;;;5.48;nan
60715;BME280;46564;53.096;8.246;2023-02-13T07:35:01;103649.31;;;5.55;nan
60715;BME280;46564;53.096;8.246;2023-02-13T07:40:03;103647.22;;;5.61;nan
60715;BME280;46564;53.096;8.246;2023-02-13T07:45:07;103656.59;;;5.59;nan
60715;BME280;46564;53.096;8.246;2023-02-13T07:50:09;103655.03;;;5.61;nan
60715;BME280;46564;53.096;8.246;2023-02-13T07:55:11;103648.41;;;5.64;nan
60715;BME280;46564;53.096;8.246;2023-02-13T08:00:14;103649.56;;;5.68;nan
60715;BME280;46564;53.096;8.246;2023-02-13T08:05:16;103636.31;;;5.65;nan
60715;BME280;46564;53.096;8.246;2023-02-13T08:10:18;103647.09;;;5.70;nan
60715;BME280;46564;53.096;8.246;2023-02-13T08:15:38;103650.56;;;5.80;nan
60715;BME280;46564;53.096;8.246;2023-02-13T08:20:40;103650.44;;;5.79;nan
60715;BME280;46564;53.096;8.246;2023-02-13T08:25:45;103656.03;;;5.83;nan
60715;BME280;46564;53.096;8.246;2023-02-13T08:30:51;103642.25;;;5.84;nan
60715;BME280;46564;53.096;8.246;2023-02-13T08:35:52;103642.38;;;5.86;nan
60715;BME280;46564;53.096;8.246;2023-02-13T08:40:58;103652.63;;;5.95;nan
60715;BME280;46564;53.096;8.246;2023-02-13T08:46:00;103655.22;;;5.95;nan
60715;BME280;46564;53.096;8.246;2023-02-13T08:51:06;103649.03;;;5.82;nan
60715;BME280;46564;53.096;8.246;2023-02-13T08:56:11;103659.00;;;5.88;nan
60715;BME280;46564;53.096;8.246;2023-02-13T09:01:13;103666.41;;;5.94;nan
60715;BME280;46564;53.096;8.246;2023-02-13T09:06:15;103658.88;;;5.97;nan
60715;BME280;46564;53.096;8.246;2023-02-13T09:11:16;103670.03;;;6.06;nan
60715;BME280;46564;53.096;8.246;2023-02-13T09:16:24;103661.72;;;6.10;nan
60715;BME280;46564;53.096;8.246;2023-02-13T09:21:26;103672.59;;;6.16;nan
60715;BME280;46564;53.096;8.246;2023-02-13T09:26:28;103665.88;;;6.18;nan
60715;BME280;46564;53.096;8.246;2023-02-13T09:31:29;103664.81;;;6.16;nan
60715;BME280;46564;53.096;8.246;2023-02-13T09:36:31;103664.16;;;6.19;nan
60715;BME280;46564;53.096;8.246;2023-02-13T09:41:39;103676.75;;;6.25;nan
60715;BME280;46564;53.096;8.246;2023-02-13T09:46:42;103678.56;;;6.26;nan
60715;BME280;46564;53.096;8.246;2023-02-13T09:51:48;103673.78;;;6.20;nan
60715;BME280;46564;53.096;8.246;2023-02-13T10:08:02;103677.53;;;6.24;nan
60715;BME280;46564;53.096;8.246;2023-02-13T10:18:15;103682.75;;;6.24;nan
60715;BME280;46564;53.096;8.246;2023-02-13T10:23:27;103679.63;;;6.28;nan
60715;BME280;46564;53.096;8.246;2023-02-13T10:28:41;103687.66;;;6.31;nan
60715;BME280;46564;53.096;8.246;2023-02-13T10:33:53;103683.06;;;6.39;nan
60715;BME280;46564;53.096;8.246;2023-02-13T10:44:41;103689.97;;;6.38;nan
60715;BME280;46564;53.096;8.246;2023-02-13T10:50:14;103692.50;;;6.48;nan
60715;BME280;46564;53.096;8.246;2023-02-13T11:05:49;103656.38;;;6.41;nan
60715;BME280;46564;53.096;8.246;2023-02-13T11:10:57;103654.47;;;6.61;nan
60715;BME280;46564;53.096;8.246;2023-02-13T11:16:09;103656.09;;;6.70;nan
60715;BME280;46564;53.096;8.246;2023-02-13T11:21:32;103644.22;;;6.74;nan
60715;BME280;46564;53.096;8.246;2023-02-13T11:26:59;103630.63;;;6.78;nan
60715;BME280;46564;53.096;8.246;2023-02-13T11:32:24;103627.72;;;6.85;nan
60715;BME280;46564;53.096;8.246;2023-02-13T11:37:28;103636.53;;;6.76;nan
60715;BME280;46564;53.096;8.246;2023-02-13T11:42:34;103632.69;;;6.82;nan
60715;BME280;46564;53.096;8.246;2023-02-13T11:47:41;103631.13;;;6.84;nan
60715;BME280;46564;53.096;8.246;2023-02-13T11:53:03;103633.28;;;6.90;nan
60715;BME280;46564;53.096;8.246;2023-02-13T11:58:24;103638.63;;;6.92;nan
60715;BME280;46564;53.096;8.246;2023-02-13T12:03:30;103633.84;;;6.86;nan
60715;BME280;46564;53.096;8.246;2023-02-13T12:08:35;103623.47;;;6.98;nan
60715;BME280;46564;53.096;8.246;2023-02-13T12:13:37;103618.72;;;7.04;nan
60715;BME280;46564;53.096;8.246;2023-02-13T12:18:43;103612.84;;;7.06;nan
60715;BME280;46564;53.096;8.246;2023-02-13T12:24:02;103616.47;;;7.08;nan
60715;BME280;46564;53.096;8.246;2023-02-13T12:29:12;103614.25;;;7.13;nan
60715;BME280;46564;53.096;8.246;2023-02-13T12:34:19;103609.50;;;7.19;nan
60715;BME280;46564;53.096;8.246;2023-02-13T12:39:33;103612.22;;;7.21;nan
60715;BME280;46564;53.096;8.246;2023-02-13T12:49:52;103599.63;;;7.15;nan
60715;BME280;46564;53.096;8.246;2023-02-13T12:55:26;103592.72;;;7.28;nan
60715;BME280;46564;53.096;8.246;2023-02-13T13:06:03;103582.53;;;7.42;nan
60715;BME280;46564;53.096;8.246;2023-02-13T13:16:33;103574.91;;;6.98;nan
60715;BME280;46564;53.096;8.246;2023-02-13T13:22:05;103582.25;;;7.04;nan
60715;BME280;46564;53.096;8.246;2023-02-13T13:27:20;103576.75;;;6.89;nan
60715;BME280;46564;53.096;8.246;2023-02-13T13:32:25;103568.09;;;7.00;nan
60715;BME280;46564;53.096;8.246;2023-02-13T13:37:35;103566.84;;;7.07;nan
60715;BME280;46564;53.096;8.246;2023-02-13T13:42:48;103560.50;;;7.03;nan
60715;BME280;46564;53.096;8.246;2023-02-13T13:48:30;103552.94;;;7.18;nan
60715;BME280;46564;53.096;8.246;2023-02-13T13:53:35;103554.06;;;7.10;nan
60715;BME280;46564;53.096;8.246;2023-02-13T13:58:44;103547.59;;;7.05;nan
60715;BME280;46564;53.096;8.246;2023-02-13T14:03:48;103546.50;;;7.13;nan
60715;BME280;46564;53.096;8.246;2023-02-13T14:13:54;103546.50;;;7.13;nan
60715;BME280;46564;53.096;8.246;2023-02-13T14:18:56;103543.50;;;7.08;nan
60715;BME280;46564;53.096;8.246;2023-02-13T14:23:58;103540.78;;;7.07;nan
60715;BME280;46564;53.096;8.246;2023-02-13T14:29:23;103537.19;;;7.17;nan
60715;BME280;46564;53.096;8.246;2023-02-13T14:34:35;103537.53;;;7.21;nan
60715;BME280;46564;53.096;8.246;2023-02-13T14:39:38;103529.38;;;7.29;nan
60715;BME280;46564;53.096;8.246;2023-02-13T14:44:46;103526.66;;;7.27;nan
60715;BME280;46564;53.096;8.246;2023-02-13T14:49:50;103527.66;;;7.17;nan
60715;BME280;46564;53.096;8.246;2023-02-13T14:54:55;103515.91;;;7.22;nan
60715;BME280;46564;53.096;8.246;2023-02-13T15:00:26;103502.53;;;7.30;nan
60715;BME280;46564;53.096;8.246;2023-02-13T15:05:30;103502.75;;;7.33;nan
60715;BME280;46564;53.096;8.246;2023-02-13T15:10:42;103504.66;;;7.35;nan
60715;BME280;46564;53.096;8.246;2023-02-13T15:15:51;103506.38;;;7.35;nan
60715;BME280;46564;53.096;8.246;2023-02-13T15:20:55;103497.78;;;7.36;nan
60715;BME280;46564;53.096;8.246;2023-02-13T15:26:01;103505.03;;;7.28;nan
60715;BME280;46564;53.096;8.246;2023-02-13T15:31:20;103502.06;;;7.23;nan
60715;BME280;46564;53.096;8.246;2023-02-13T15:36:25;103499.44;;;7.23;nan
60715;BME280;46564;53.096;8.246;2023-02-13T15:41:32;103502.53;;;7.18;nan
60715;BME280;46564;53.096;8.246;2023-02-13T15:46:35;103498.00;;;7.15;nan
60715;BME280;46564;53.096;8.246;2023-02-13T16:34:49;103502.91;;;6.77;nan
60715;BME280;46564;53.096;8.246;2023-02-13T16:39:51;103519.91;;;6.71;nan
60715;BME280;46564;53.096;8.246;2023-02-13T16:45:19;103520.97;;;6.63;nan
60715;BME280;46564;53.096;8.246;2023-02-13T16:50:20;103508.78;;;6.62;nan
60715;BME280;46564;53.096;8.246;2023-02-13T16:55:22;103500.16;;;6.63;nan
60715;BME280;46564;53.096;8.246;2023-02-13T17:00:24;103506.06;;;6.61;nan
60715;BME280;46564;53.096;8.246;2023-02-13T17:05:28;103509.88;;;6.54;nan
60715;BME280;46564;53.096;8.246;2023-02-13T17:10:32;103509.22;;;6.57;nan
60715;BME280;46564;53.096;8.246;2023-02-13T17:15:40;103513.63;;;6.58;nan
60715;BME280;46564;53.096;8.246;2023-02-13T17:20:44;103511.03;;;6.58;nan
60715;BME280;46564;53.096;8.246;2023-02-13T17:25:46;103515.06;;;6.54;nan
60715;BME280;46564;53.096;8.246;2023-02-13T17:30:51;103512.53;;;6.44;nan
60715;BME280;46564;53.096;8.246;2023-02-13T17:35:55;103505.44;;;6.41;nan
60715;BME280;46564;53.096;8.246;2023-02-13T17:40:57;103502.81;;;6.41;nan
60715;BME280;46564;53.096;8.246;2023-02-13T17:45:59;103496.81;;;6.42;nan
60715;BME280;46564;53.096;8.246;2023-02-13T17:51:02;103503.72;;;6.42;nan
60715;BME280;46564;53.096;8.246;2023-02-13T17:56:04;103510.50;;;6.40;nan
60715;BME280;46564;53.096;8.246;2023-02-13T18:01:05;103506.88;;;6.37;nan
60715;BME280;46564;53.096;8.246;2023-02-13T18:06:11;103506.50;;;6.33;nan
60715;BME280;46564;53.096;8.246;2023-02-13T18:11:13;103505.38;;;6.29;nan
60715;BME280;46564;53.096;8.246;2023-02-13T18:16:15;103505.25;;;6.28;nan
60715;BME280;46564;53.096;8.246;2023-02-13T18:21:17;103503.44;;;6.27;nan
60715;BME280;46564;53.096;8.246;2023-02-13T18:26:22;103502.97;;;6.21;nan
60715;BME280;46564;53.096;8.246;2023-02-13T18:31:24;103501.53;;;6.02;nan
60715;BME280;46564;53.096;8.246;2023-02-13T18:36:26;103515.97;;;5.88;nan
60715;BME280;46564;53.096;8.246;2023-02-13T18:41:27;103507.84;;;5.73;nan
60715;BME280;46564;53.096;8.246;2023-02-13T18:46:29;103511.28;;;5.62;nan
60715;BME280;46564;53.096;8.246;2023-02-13T18:51:31;103516.66;;;5.43;nan
60715;BME280;46564;53.096;8.246;2023-02-13T18:56:33;103515.78;;;5.32;nan
60715;BME280;46564;53.096;8.246;2023-02-13T19:01:35;103506.75;;;5.17;nan
60715;BME280;46564;53.096;8.246;2023-02-13T19:06:38;103501.97;;;5.01;nan
60715;BME280;46564;53.096;8.246;2023-02-13T19:11:40;103500.44;;;4.82;nan
60715;BME280;46564;53.096;8.246;2023-02-13T19:16:43;103503.28;;;4.65;nan
60715;BME280;46564;53.096;8.246;2023-02-13T19:21:45;103510.78;;;4.51;nan
60715;BME280;46564;53.096;8.246;2023-02-13T19:26:49;103509.63;;;4.37;nan
60715;BME280;46564;53.096;8.246;2023-02-13T19:31:53;103503.63;;;4.18;nan
60715;BME280;46564;53.096;8.246;2023-02-13T19:36:55;103510.22;;;4.04;nan
60715;BME280;46564;53.096;8.246;2023-02-13T19:41:57;103500.94;;;3.87;nan
60715;BME280;46564;53.096;8.246;2023-02-13T19:46:58;103506.47;;;3.71;nan
60715;BME280;46564;53.096;8.246;2023-02-13T19:52:00;103500.16;;;3.59;nan
60715;BME280;46564;53.096;8.246;2023-02-13T19:57:01;103508.53;;;3.46;nan
60715;BME280;46564;53.096;8.246;2023-02-13T20:02:09;103506.38;;;3.31;nan
60715;BME280;46564;53.096;8.246;2023-02-13T20:07:13;103501.66;;;3.17;nan
60715;BME280;46564;53.096;8.246;2023-02-13T20:12:15;103492.59;;;3.03;nan
60715;BME280;46564;53.096;8.246;2023-02-13T20:17:16;103498.78;;;2.95;nan
60715;BME280;46564;53.096;8.246;2023-02-13T20:22:18;103497.66;;;2.82;nan
60715;BME280;46564;53.096;8.246;2023-02-13T20:27:20;103497.72;;;2.74;nan
60715;BME280;46564;53.096;8.246;2023-02-13T20:32:21;103494.56;;;2.68;nan
60715;BME280;46564;53.096;8.246;2023-02-13T20:37:23;103493.22;;;2.62;nan
60715;BME280;46564;53.096;8.246;2023-02-13T20:42:25;103489.50;;;2.50;nan
60715;BME280;46564;53.096;8.246;2023-02-13T20:47:27;103483.31;;;2.39;nan
60715;BME280;46564;53.096;8.246;2023-02-13T20:52:28;103480.50;;;2.27;nan
60715;BME280;46564;53.096;8.246;2023-02-13T20:57:34;103484.94;;;2.20;nan
60715;BME280;46564;53.096;8.246;2023-02-13T21:02:36;103490.44;;;2.14;nan
60715;BME280;46564;53.096;8.246;2023-02-13T21:07:37;103497.63;;;2.08;nan
60715;BME280;46564;53.096;8.246;2023-02-13T21:12:39;103484.56;;;1.98;nan
60715;BME280;46564;53.096;8.246;2023-02-13T21:17:41;103487.19;;;1.89;nan
60715;BME280;46564;53.096;8.246;2023-02-13T21:22:42;103482.97;;;1.81;nan
60715;BME280;46564;53.096;8.246;2023-02-13T21:27:44;103480.25;;;1.70;nan
60715;BME280;46564;53.096;8.246;2023-02-13T21:32:46;103480.13;;;1.60;nan
60715;BME280;46564;53.096;8.246;2023-02-13T21:37:47;103492.59;;;1.55;nan
60715;BME280;46564;53.096;8.246;2023-02-13T21:42:52;103485.16;;;1.50;nan
60715;BME280;46564;53.096;8.246;2023-02-13T21:47:54;103478.06;;;1.47;nan
60715;BME280;46564;53.096;8.246;2023-02-13T21:52:56;103482.75;;;1.42;nan
60715;BME280;46564;53.096;8.246;2023-02-13T21:57:58;103477.91;;;1.37;nan
60715;BME280;46564;53.096;8.246;2023-02-13T22:03:00;103479.13;;;1.32;nan
60715;BME280;46564;53.096;8.246;2023-02-13T22:08:02;103482.19;;;1.28;nan
60715;BME280;46564;53.096;8.246;2023-02-13T22:13:12;103487.00;;;1.24;nan
60715;BME280;46564;53.096;8.246;2023-02-13T22:18:14;103485.81;;;1.21;nan
60715;BME280;46564;53.096;8.246;2023-02-13T22:23:16;103488.25;;;1.19;nan
60715;BME280;46564;53.096;8.246;2023-02-13T22:28:17;103484.63;;;1.17;nan
60715;BME280;46564;53.096;8.246;2023-02-13T22:33:19;103481.59;;;1.13;nan
60715;BME280;46564;53.096;8.246;2023-02-13T22:38:20;103487.03;;;1.07;nan
60715;BME280;46564;53.096;8.246;2023-02-13T22:43:22;103485.06;;;0.96;nan
60715;BME280;46564;53.096;8.246;2023-02-13T22:48:23;103492.66;;;0.94;nan
60715;BME280;46564;53.096;8.246;2023-02-13T22:53:25;103500.22;;;0.93;nan
60715;BME280;46564;53.096;8.246;2023-02-13T22:58:27;103495.06;;;0.93;nan
60715;BME280;46564;53.096;8.246;2023-02-13T23:03:30;103499.63;;;0.95;nan
60715;BME280;46564;53.096;8.246;2023-02-13T23:08:33;103496.47;;;0.98;nan
60715;BME280;46564;53.096;8.246;2023-02-13T23:13:35;103492.34;;;1.00;nan
60715;BME280;46564;53.096;8.246;2023-02-13T23:18:36;103507.09;;;1.01;nan
60715;BME280;46564;53.096;8.246;2023-02-13T23:23:38;103507.66;;;0.90;nan
60715;BME280;46564;53.096;8.246;2023-02-13T23:28:40;103504.63;;;0.85;nan
60715;BME280;46564;53.096;8.246;2023-02-13T23:33:42;103506.47;;;0.86;nan
60715;BME280;46564;53.096;8.246;2023-02-13T23:38:44;103504.78;;;0.86;nan
60715;BME280;46564;53.096;8.246;2023-02-13T23:43:47;103508.59;;;0.81;nan
60715;BME280;46564;53.096;8.246;2023-02-13T23:48:48;103506.13;;;0.74;nan
60715;BME280;46564;53.096;8.246;2023-02-13T23:53:51;103497.00;;;0.69;nan
60715;BME280;46564;53.096;8.246;2023-02-13T23:58:56;103510.69;;;0.68;nan
